sensor_id;sensor_type;location;lat;lon;timestamp;pressure;altitude;pressure_sealevel;temperature;humidity
78909;BME280;68298;37.368;127.108;2023-05-29T00:00:11;99953.13;;;31.81;37.46
78909;BME280;68298;37.368;127.108;2023-05-29T00:02:43;99957.69;;;31.87;37.69
78909;BME280;68298;37.368;127.108;2023-05-29T00:05:14;99961.38;;;31.86;37.44
78909;BME280;68298;37.368;127.108;2023-05-29T00:07:45;99958.06;;;31.97;37.35
78909;BME280;68298;37.368;127.108;2023-05-29T00:10:15;99961.84;;;31.83;37.50
78909;BME280;68298;37.368;127.108;2023-05-29T00:12:46;99957.50;;;31.82;37.69
78909;BME280;68298;37.368;127.108;2023-05-29T00:15:17;99958.94;;;31.84;37.82
78909;BME280;68298;37.368;127.108;2023-05-29T00:17:47;99960.53;;;31.99;37.10
78909;BME280;68298;37.368;127.108;2023-05-29T00:20:19;99959.13;;;31.89;37.54
78909;BME280;68298;37.368;127.108;2023-05-29T00:22:49;99959.13;;;31.89;37.48
78909;BME280;68298;37.368;127.108;2023-05-29T00:25:20;99959.13;;;31.76;37.56
78909;BME280;68298;37.368;127.108;2023-05-29T00:27:50;99951.09;;;31.89;37.28
78909;BME280;68298;37.368;127.108;2023-05-29T00:30:21;99951.53;;;31.73;38.19
78909;BME280;68298;37.368;127.108;2023-05-29T00:32:51;99948.00;;;31.86;37.54
78909;BME280;68298;37.368;127.108;2023-05-29T00:35:22;99948.22;;;31.84;37.75
78909;BME280;68298;37.368;127.108;2023-05-29T00:37:53;99943.69;;;31.91;37.76
78909;BME280;68298;37.368;127.108;2023-05-29T00:40:24;99944.28;;;31.93;37.95
78909;BME280;68298;37.368;127.108;2023-05-29T00:42:55;99944.91;;;31.89;37.80
78909;BME280;68298;37.368;127.108;2023-05-29T00:45:25;99949.03;;;31.91;37.59
78909;BME280;68298;37.368;127.108;2023-05-29T00:47:56;99940.81;;;31.86;37.75
78909;BME280;68298;37.368;127.108;2023-05-29T00:50:27;99937.50;;;31.78;37.93
78909;BME280;68298;37.368;127.108;2023-05-29T00:52:59;99939.97;;;31.86;37.39
78909;BME280;68298;37.368;127.108;2023-05-29T00:55:31;99934.75;;;32.04;37.60
78909;BME280;68298;37.368;127.108;2023-05-29T00:58:02;99941.53;;;32.07;37.30
78909;BME280;68298;37.368;127.108;2023-05-29T01:00:33;99948.13;;;32.11;37.40
78909;BME280;68298;37.368;127.108;2023-05-29T01:03:06;99944.13;;;31.82;38.10
78909;BME280;68298;37.368;127.108;2023-05-29T01:05:38;99942.47;;;31.74;38.01
78909;BME280;68298;37.368;127.108;2023-05-29T01:08:09;99949.25;;;31.70;38.27
78909;BME280;68298;37.368;127.108;2023-05-29T01:10:40;99943.91;;;31.83;37.73
78909;BME280;68298;37.368;127.108;2023-05-29T01:13:35;99941.00;;;31.91;38.18
78909;BME280;68298;37.368;127.108;2023-05-29T01:25:19;99956.25;;;31.91;38.04
78909;BME280;68298;37.368;127.108;2023-05-29T01:27:53;99959.53;;;31.80;37.96
78909;BME280;68298;37.368;127.108;2023-05-29T01:30:24;99967.66;;;32.18;37.48
78909;BME280;68298;37.368;127.108;2023-05-29T01:32:56;99962.16;;;32.00;37.86
78909;BME280;68298;37.368;127.108;2023-05-29T01:35:28;99964.22;;;32.04;37.74
78909;BME280;68298;37.368;127.108;2023-05-29T01:37:58;99964.97;;;32.25;37.18
78909;BME280;68298;37.368;127.108;2023-05-29T01:40:29;99962.56;;;32.03;37.50
78909;BME280;68298;37.368;127.108;2023-05-29T01:43:00;99953.59;;;31.78;38.24
78909;BME280;68298;37.368;127.108;2023-05-29T01:45:48;99955.22;;;31.79;37.92
78909;BME280;68298;37.368;127.108;2023-05-29T01:48:19;99953.78;;;31.83;37.87
78909;BME280;68298;37.368;127.108;2023-05-29T01:50:50;99949.00;;;31.98;37.96
78909;BME280;68298;37.368;127.108;2023-05-29T01:53:21;99949.19;;;32.03;38.34
78909;BME280;68298;37.368;127.108;2023-05-29T01:55:52;99957.66;;;31.93;38.31
78909;BME280;68298;37.368;127.108;2023-05-29T01:58:24;99959.75;;;31.72;38.30
78909;BME280;68298;37.368;127.108;2023-05-29T02:00:55;99964.28;;;31.71;38.53
78909;BME280;68298;37.368;127.108;2023-05-29T02:03:26;99966.16;;;31.77;38.97
78909;BME280;68298;37.368;127.108;2023-05-29T02:06:00;99968.84;;;31.77;38.48
78909;BME280;68298;37.368;127.108;2023-05-29T02:08:31;99970.69;;;31.70;38.60
78909;BME280;68298;37.368;127.108;2023-05-29T02:11:19;99969.19;;;31.94;38.30
78909;BME280;68298;37.368;127.108;2023-05-29T02:13:50;99981.59;;;31.75;38.85
78909;BME280;68298;37.368;127.108;2023-05-29T02:16:21;99971.91;;;31.74;38.88
78909;BME280;68298;37.368;127.108;2023-05-29T02:18:52;99967.78;;;31.78;38.66
78909;BME280;68298;37.368;127.108;2023-05-29T02:21:23;99971.69;;;31.89;38.54
78909;BME280;68298;37.368;127.108;2023-05-29T02:23:53;99969.66;;;31.91;37.87
78909;BME280;68298;37.368;127.108;2023-05-29T02:26:24;99965.03;;;32.05;38.20
78909;BME280;68298;37.368;127.108;2023-05-29T02:28:55;99966.25;;;32.09;37.78
78909;BME280;68298;37.368;127.108;2023-05-29T02:31:26;99963.22;;;31.99;38.16
78909;BME280;68298;37.368;127.108;2023-05-29T02:33:57;99950.41;;;32.07;38.00
78909;BME280;68298;37.368;127.108;2023-05-29T02:36:27;99953.94;;;32.01;37.80
78909;BME280;68298;37.368;127.108;2023-05-29T02:38:58;99959.28;;;32.01;38.53
78909;BME280;68298;37.368;127.108;2023-05-29T02:41:28;99959.06;;;32.03;38.09
78909;BME280;68298;37.368;127.108;2023-05-29T02:43:59;99957.16;;;32.10;38.17
78909;BME280;68298;37.368;127.108;2023-05-29T02:46:29;99960.91;;;32.09;38.29
78909;BME280;68298;37.368;127.108;2023-05-29T02:49:00;99956.22;;;31.98;38.72
78909;BME280;68298;37.368;127.108;2023-05-29T02:51:30;99956.34;;;32.16;38.09
78909;BME280;68298;37.368;127.108;2023-05-29T02:54:02;99965.84;;;32.12;38.13
78909;BME280;68298;37.368;127.108;2023-05-29T02:56:32;99959.03;;;32.16;38.09
78909;BME280;68298;37.368;127.108;2023-05-29T02:59:04;99963.16;;;32.12;38.30
78909;BME280;68298;37.368;127.108;2023-05-29T03:01:53;99959.75;;;32.36;37.36
78909;BME280;68298;37.368;127.108;2023-05-29T03:04:24;99960.16;;;32.33;37.75
78909;BME280;68298;37.368;127.108;2023-05-29T03:06:55;99972.97;;;32.31;37.73
78909;BME280;68298;37.368;127.108;2023-05-29T03:09:25;99970.78;;;32.15;38.33
78909;BME280;68298;37.368;127.108;2023-05-29T03:11:57;99966.63;;;32.19;38.25
78909;BME280;68298;37.368;127.108;2023-05-29T03:14:28;99960.97;;;32.34;38.42
78909;BME280;68298;37.368;127.108;2023-05-29T03:16:59;99975.91;;;32.16;38.80
78909;BME280;68298;37.368;127.108;2023-05-29T03:19:31;99971.19;;;32.12;38.45
78909;BME280;68298;37.368;127.108;2023-05-29T03:22:01;99963.94;;;32.19;38.64
78909;BME280;68298;37.368;127.108;2023-05-29T03:24:34;99962.53;;;32.16;38.38
78909;BME280;68298;37.368;127.108;2023-05-29T03:27:05;99972.16;;;32.24;38.10
78909;BME280;68298;37.368;127.108;2023-05-29T03:29:37;99977.34;;;32.19;38.46
78909;BME280;68298;37.368;127.108;2023-05-29T03:32:08;99977.59;;;32.11;38.79
78909;BME280;68298;37.368;127.108;2023-05-29T03:34:38;99967.88;;;32.16;38.46
78909;BME280;68298;37.368;127.108;2023-05-29T03:37:09;99966.34;;;32.40;37.87
78909;BME280;68298;37.368;127.108;2023-05-29T03:39:40;99962.66;;;32.28;38.23
78909;BME280;68298;37.368;127.108;2023-05-29T03:42:11;99966.19;;;32.22;38.83
78909;BME280;68298;37.368;127.108;2023-05-29T03:44:42;99970.97;;;32.13;38.63
78909;BME280;68298;37.368;127.108;2023-05-29T03:47:13;99959.13;;;32.34;37.97
78909;BME280;68298;37.368;127.108;2023-05-29T03:49:44;99965.66;;;32.52;37.75
78909;BME280;68298;37.368;127.108;2023-05-29T03:52:15;99961.59;;;32.36;37.78
78909;BME280;68298;37.368;127.108;2023-05-29T03:54:45;99967.81;;;32.36;38.31
78909;BME280;68298;37.368;127.108;2023-05-29T03:57:16;99962.16;;;32.51;37.89
78909;BME280;68298;37.368;127.108;2023-05-29T03:59:47;99965.97;;;32.30;38.51
78909;BME280;68298;37.368;127.108;2023-05-29T04:02:18;99965.72;;;32.38;38.52
78909;BME280;68298;37.368;127.108;2023-05-29T04:04:48;99967.34;;;32.46;37.73
78909;BME280;68298;37.368;127.108;2023-05-29T04:07:20;99960.75;;;32.42;38.26
78909;BME280;68298;37.368;127.108;2023-05-29T04:09:51;99961.66;;;32.61;37.80
78909;BME280;68298;37.368;127.108;2023-05-29T04:12:22;99956.78;;;32.51;37.89
78909;BME280;68298;37.368;127.108;2023-05-29T04:14:52;99956.63;;;32.46;38.43
78909;BME280;68298;37.368;127.108;2023-05-29T04:17:23;99948.75;;;32.51;38.28
78909;BME280;68298;37.368;127.108;2023-05-29T04:19:53;99948.97;;;32.50;37.58
78909;BME280;68298;37.368;127.108;2023-05-29T04:22:24;99948.78;;;32.45;38.02
78909;BME280;68298;37.368;127.108;2023-05-29T04:24:54;99945.94;;;32.33;38.22
78909;BME280;68298;37.368;127.108;2023-05-29T04:27:25;99934.19;;;32.65;37.40
78909;BME280;68298;37.368;127.108;2023-05-29T04:30:14;99942.91;;;32.61;37.75
78909;BME280;68298;37.368;127.108;2023-05-29T04:32:47;99936.00;;;32.72;38.14
78909;BME280;68298;37.368;127.108;2023-05-29T04:35:18;99928.97;;;32.77;37.25
78909;BME280;68298;37.368;127.108;2023-05-29T04:37:57;99928.34;;;32.75;37.15
78909;BME280;68298;37.368;127.108;2023-05-29T04:40:31;99916.56;;;32.76;37.49
78909;BME280;68298;37.368;127.108;2023-05-29T04:43:06;99918.91;;;32.73;37.47
78909;BME280;68298;37.368;127.108;2023-05-29T04:45:52;99919.38;;;32.88;36.98
78909;BME280;68298;37.368;127.108;2023-05-29T04:48:23;99921.03;;;32.89;37.03
78909;BME280;68298;37.368;127.108;2023-05-29T04:50:54;99918.59;;;32.81;37.21
78909;BME280;68298;37.368;127.108;2023-05-29T04:53:25;99914.19;;;32.68;38.04
78909;BME280;68298;37.368;127.108;2023-05-29T04:55:56;99919.25;;;32.76;37.38
78909;BME280;68298;37.368;127.108;2023-05-29T04:58:26;99916.47;;;32.89;37.27
78909;BME280;68298;37.368;127.108;2023-05-29T05:00:57;99922.88;;;32.88;36.86
78909;BME280;68298;37.368;127.108;2023-05-29T05:03:31;99912.50;;;32.74;37.57
78909;BME280;68298;37.368;127.108;2023-05-29T05:06:02;99922.63;;;33.22;36.36
78909;BME280;68298;37.368;127.108;2023-05-29T05:08:36;99915.72;;;32.82;37.41
78909;BME280;68298;37.368;127.108;2023-05-29T05:11:06;99911.47;;;33.00;36.44
78909;BME280;68298;37.368;127.108;2023-05-29T05:13:37;99912.00;;;33.08;36.72
78909;BME280;68298;37.368;127.108;2023-05-29T05:16:07;99913.78;;;33.14;36.75
78909;BME280;68298;37.368;127.108;2023-05-29T05:18:39;99911.47;;;33.61;35.90
78909;BME280;68298;37.368;127.108;2023-05-29T05:21:10;99901.22;;;33.33;36.16
78909;BME280;68298;37.368;127.108;2023-05-29T05:23:41;99902.41;;;33.19;36.91
78909;BME280;68298;37.368;127.108;2023-05-29T05:26:26;99896.66;;;33.59;35.83
78909;BME280;68298;37.368;127.108;2023-05-29T05:28:56;99892.53;;;33.56;35.69
78909;BME280;68298;37.368;127.108;2023-05-29T05:31:29;99892.44;;;33.63;35.83
78909;BME280;68298;37.368;127.108;2023-05-29T05:33:59;99901.63;;;33.55;35.47
78909;BME280;68298;37.368;127.108;2023-05-29T05:36:30;99902.31;;;33.51;35.92
78909;BME280;68298;37.368;127.108;2023-05-29T05:39:08;99900.84;;;33.85;35.20
78909;BME280;68298;37.368;127.108;2023-05-29T05:41:38;99899.06;;;33.42;35.86
78909;BME280;68298;37.368;127.108;2023-05-29T05:44:10;99897.97;;;33.68;35.97
78909;BME280;68298;37.368;127.108;2023-05-29T05:46:45;99892.28;;;33.76;36.14
78909;BME280;68298;37.368;127.108;2023-05-29T05:49:15;99896.13;;;33.50;36.38
78909;BME280;68298;37.368;127.108;2023-05-29T05:51:46;99884.31;;;33.69;35.38
78909;BME280;68298;37.368;127.108;2023-05-29T05:54:36;99891.56;;;33.69;35.61
78909;BME280;68298;37.368;127.108;2023-05-29T05:57:06;99894.59;;;33.36;36.47
78909;BME280;68298;37.368;127.108;2023-05-29T05:59:37;99896.94;;;33.51;35.89
78909;BME280;68298;37.368;127.108;2023-05-29T06:02:09;99893.72;;;33.60;36.23
78909;BME280;68298;37.368;127.108;2023-05-29T06:04:40;99894.81;;;33.16;36.49
78909;BME280;68298;37.368;127.108;2023-05-29T06:07:11;99899.91;;;33.42;36.44
78909;BME280;68298;37.368;127.108;2023-05-29T06:09:43;99888.91;;;33.81;35.49
78909;BME280;68298;37.368;127.108;2023-05-29T06:12:13;99891.19;;;33.65;35.90
78909;BME280;68298;37.368;127.108;2023-05-29T06:14:55;99886.63;;;33.48;36.15
78909;BME280;68298;37.368;127.108;2023-05-29T06:17:26;99891.91;;;33.73;36.36
78909;BME280;68298;37.368;127.108;2023-05-29T06:19:56;99879.53;;;33.72;35.95
78909;BME280;68298;37.368;127.108;2023-05-29T06:22:28;99875.94;;;33.78;35.56
78909;BME280;68298;37.368;127.108;2023-05-29T06:24:59;99875.88;;;33.66;36.15
78909;BME280;68298;37.368;127.108;2023-05-29T06:27:32;99867.81;;;33.84;35.77
78909;BME280;68298;37.368;127.108;2023-05-29T06:30:03;99871.59;;;33.77;36.42
78909;BME280;68298;37.368;127.108;2023-05-29T06:32:34;99864.75;;;34.11;34.88
78909;BME280;68298;37.368;127.108;2023-05-29T06:35:07;99869.28;;;33.80;35.61
78909;BME280;68298;37.368;127.108;2023-05-29T06:37:39;99863.91;;;33.99;35.80
78909;BME280;68298;37.368;127.108;2023-05-29T06:40:11;99870.34;;;33.79;35.93
78909;BME280;68298;37.368;127.108;2023-05-29T06:42:42;99875.03;;;34.02;35.06
78909;BME280;68298;37.368;127.108;2023-05-29T06:45:15;99872.75;;;34.17;35.48
78909;BME280;68298;37.368;127.108;2023-05-29T06:47:47;99874.69;;;34.10;35.07
78909;BME280;68298;37.368;127.108;2023-05-29T06:50:18;99876.44;;;34.05;35.34
78909;BME280;68298;37.368;127.108;2023-05-29T06:52:48;99874.50;;;33.93;35.03
78909;BME280;68298;37.368;127.108;2023-05-29T06:55:35;99871.06;;;34.05;35.34
78909;BME280;68298;37.368;127.108;2023-05-29T06:58:06;99870.28;;;34.16;34.86
78909;BME280;68298;37.368;127.108;2023-05-29T07:00:36;99857.94;;;34.38;34.31
78909;BME280;68298;37.368;127.108;2023-05-29T07:03:26;99862.22;;;34.46;34.60
78909;BME280;68298;37.368;127.108;2023-05-29T07:05:57;99861.16;;;34.47;34.61
78909;BME280;68298;37.368;127.108;2023-05-29T07:08:28;99866.78;;;34.57;34.13
78909;BME280;68298;37.368;127.108;2023-05-29T07:10:59;99870.94;;;34.41;34.28
78909;BME280;68298;37.368;127.108;2023-05-29T07:13:29;99875.19;;;34.19;35.08
78909;BME280;68298;37.368;127.108;2023-05-29T07:16:01;99864.19;;;34.51;33.98
78909;BME280;68298;37.368;127.108;2023-05-29T07:18:54;99877.59;;;34.39;34.57
78909;BME280;68298;37.368;127.108;2023-05-29T07:21:25;99881.91;;;34.40;34.75
78909;BME280;68298;37.368;127.108;2023-05-29T07:23:56;99871.69;;;34.60;33.74
78909;BME280;68298;37.368;127.108;2023-05-29T07:26:26;99871.69;;;34.72;33.94
78909;BME280;68298;37.368;127.108;2023-05-29T07:28:57;99870.31;;;34.81;33.51
78909;BME280;68298;37.368;127.108;2023-05-29T07:31:30;99877.78;;;34.56;34.08
78909;BME280;68298;37.368;127.108;2023-05-29T07:34:00;99879.38;;;34.45;34.21
78909;BME280;68298;37.368;127.108;2023-05-29T07:36:31;99884.13;;;34.31;34.01
78909;BME280;68298;37.368;127.108;2023-05-29T07:39:04;99880.63;;;34.42;33.84
78909;BME280;68298;37.368;127.108;2023-05-29T07:41:38;99881.69;;;34.41;34.51
78909;BME280;68298;37.368;127.108;2023-05-29T07:44:08;99881.41;;;34.61;34.00
78909;BME280;68298;37.368;127.108;2023-05-29T07:46:39;99874.69;;;34.40;33.84
78909;BME280;68298;37.368;127.108;2023-05-29T07:49:34;99877.56;;;34.69;33.66
78909;BME280;68298;37.368;127.108;2023-05-29T07:52:06;99875.66;;;34.58;34.13
78909;BME280;68298;37.368;127.108;2023-05-29T07:54:37;99890.75;;;34.59;33.47
78909;BME280;68298;37.368;127.108;2023-05-29T07:57:09;99886.09;;;34.66;33.85
78909;BME280;68298;37.368;127.108;2023-05-29T07:59:42;99885.50;;;34.87;33.47
78909;BME280;68298;37.368;127.108;2023-05-29T08:02:14;99888.44;;;34.74;33.43
78909;BME280;68298;37.368;127.108;2023-05-29T08:05:00;99888.03;;;34.47;33.97
78909;BME280;68298;37.368;127.108;2023-05-29T08:07:31;99888.31;;;34.69;33.36
78909;BME280;68298;37.368;127.108;2023-05-29T08:10:02;99888.09;;;34.70;33.20
78909;BME280;68298;37.368;127.108;2023-05-29T08:12:32;99894.13;;;34.54;33.46
78909;BME280;68298;37.368;127.108;2023-05-29T08:15:05;99885.50;;;34.76;33.35
78909;BME280;68298;37.368;127.108;2023-05-29T08:17:37;99882.13;;;34.80;33.50
78909;BME280;68298;37.368;127.108;2023-05-29T08:20:08;99896.25;;;34.52;33.91
78909;BME280;68298;37.368;127.108;2023-05-29T08:22:40;99880.84;;;34.59;33.68
78909;BME280;68298;37.368;127.108;2023-05-29T08:25:10;99875.13;;;34.79;33.19
78909;BME280;68298;37.368;127.108;2023-05-29T08:27:40;99886.09;;;34.66;33.51
78909;BME280;68298;37.368;127.108;2023-05-29T08:30:12;99877.78;;;34.67;33.37
78909;BME280;68298;37.368;127.108;2023-05-29T08:32:42;99882.94;;;34.69;33.92
78909;BME280;68298;37.368;127.108;2023-05-29T08:35:13;99889.28;;;34.44;33.98
78909;BME280;68298;37.368;127.108;2023-05-29T08:37:44;99880.94;;;34.64;33.67
78909;BME280;68298;37.368;127.108;2023-05-29T08:40:15;99883.97;;;34.56;34.00
78909;BME280;68298;37.368;127.108;2023-05-29T08:42:58;99883.88;;;34.75;33.65
78909;BME280;68298;37.368;127.108;2023-05-29T08:45:32;99881.03;;;34.58;33.93
78909;BME280;68298;37.368;127.108;2023-05-29T08:48:05;99885.63;;;34.69;33.67
78909;BME280;68298;37.368;127.108;2023-05-29T08:50:46;99888.94;;;34.41;33.74
78909;BME280;68298;37.368;127.108;2023-05-29T08:53:17;99887.03;;;34.60;33.81
78909;BME280;68298;37.368;127.108;2023-05-29T08:55:49;99886.00;;;34.84;32.97
78909;BME280;68298;37.368;127.108;2023-05-29T08:58:23;99898.25;;;34.57;34.12
78909;BME280;68298;37.368;127.108;2023-05-29T09:00:54;99895.88;;;34.49;34.24
78909;BME280;68298;37.368;127.108;2023-05-29T09:03:25;99894.72;;;34.56;33.64
78909;BME280;68298;37.368;127.108;2023-05-29T09:06:00;99886.75;;;34.50;33.67
78909;BME280;68298;37.368;127.108;2023-05-29T09:08:33;99887.66;;;34.43;33.96
78909;BME280;68298;37.368;127.108;2023-05-29T09:11:04;99885.16;;;34.72;33.54
78909;BME280;68298;37.368;127.108;2023-05-29T09:13:34;99890.88;;;34.22;34.45
78909;BME280;68298;37.368;127.108;2023-05-29T09:16:05;99890.75;;;34.59;33.48
78909;BME280;68298;37.368;127.108;2023-05-29T09:18:37;99893.78;;;34.51;33.52
78909;BME280;68298;37.368;127.108;2023-05-29T09:21:08;99890.81;;;34.40;33.94
78909;BME280;68298;37.368;127.108;2023-05-29T09:23:39;99895.66;;;34.62;33.68
78909;BME280;68298;37.368;127.108;2023-05-29T09:26:14;99897.34;;;34.44;33.65
78909;BME280;68298;37.368;127.108;2023-05-29T09:28:46;99894.25;;;34.48;33.73
78909;BME280;68298;37.368;127.108;2023-05-29T09:31:17;99887.16;;;34.65;33.45
78909;BME280;68298;37.368;127.108;2023-05-29T09:33:50;99898.38;;;34.32;33.74
78909;BME280;68298;37.368;127.108;2023-05-29T09:36:24;99896.03;;;34.65;33.84
78909;BME280;68298;37.368;127.108;2023-05-29T09:38:55;99912.09;;;34.42;33.77
78909;BME280;68298;37.368;127.108;2023-05-29T09:41:43;99908.09;;;34.75;33.21
78909;BME280;68298;37.368;127.108;2023-05-29T09:44:15;99903.28;;;34.65;33.23
78909;BME280;68298;37.368;127.108;2023-05-29T09:46:49;99911.13;;;34.55;33.60
78909;BME280;68298;37.368;127.108;2023-05-29T09:49:23;99903.41;;;34.28;34.16
78909;BME280;68298;37.368;127.108;2023-05-29T09:51:56;99910.47;;;34.41;34.10
78909;BME280;68298;37.368;127.108;2023-05-29T09:54:29;99905.88;;;34.83;33.40
78909;BME280;68298;37.368;127.108;2023-05-29T09:57:01;99911.69;;;34.57;33.24
78909;BME280;68298;37.368;127.108;2023-05-29T09:59:34;99921.94;;;34.48;34.02
78909;BME280;68298;37.368;127.108;2023-05-29T10:02:05;99917.22;;;34.43;33.79
78909;BME280;68298;37.368;127.108;2023-05-29T10:04:41;99924.56;;;34.55;33.60
78909;BME280;68298;37.368;127.108;2023-05-29T10:07:21;99921.28;;;34.23;34.23
78909;BME280;68298;37.368;127.108;2023-05-29T10:10:03;99929.88;;;34.43;33.80
78909;BME280;68298;37.368;127.108;2023-05-29T10:12:38;99933.66;;;34.54;33.33
78909;BME280;68298;37.368;127.108;2023-05-29T10:15:13;99925.25;;;34.50;34.00
78909;BME280;68298;37.368;127.108;2023-05-29T10:17:57;99930.03;;;34.48;33.99
78909;BME280;68298;37.368;127.108;2023-05-29T10:20:28;99928.53;;;34.34;33.86
78909;BME280;68298;37.368;127.108;2023-05-29T10:23:01;99935.22;;;34.73;33.58
78909;BME280;68298;37.368;127.108;2023-05-29T10:25:33;99936.63;;;34.34;34.08
78909;BME280;68298;37.368;127.108;2023-05-29T10:28:05;99942.34;;;34.37;33.64
78909;BME280;68298;37.368;127.108;2023-05-29T10:31:02;99944.00;;;34.38;34.21
78909;BME280;68298;37.368;127.108;2023-05-29T10:36:49;99933.00;;;34.70;33.22
78909;BME280;68298;37.368;127.108;2023-05-29T10:39:24;99932.53;;;34.73;33.46
78909;BME280;68298;37.368;127.108;2023-05-29T10:41:55;99937.31;;;34.71;33.37
78909;BME280;68298;37.368;127.108;2023-05-29T10:47:28;99934.13;;;34.51;33.60
78909;BME280;68298;37.368;127.108;2023-05-29T10:50:02;99936.97;;;34.37;34.09
78909;BME280;68298;37.368;127.108;2023-05-29T10:52:34;99941.06;;;34.70;33.27
78909;BME280;68298;37.368;127.108;2023-05-29T10:55:10;99935.78;;;34.33;34.06
78909;BME280;68298;37.368;127.108;2023-05-29T10:57:47;99945.50;;;34.34;34.18
78909;BME280;68298;37.368;127.108;2023-05-29T11:00:18;99952.66;;;34.40;33.93
78909;BME280;68298;37.368;127.108;2023-05-29T11:02:52;99948.66;;;34.73;33.20
78909;BME280;68298;37.368;127.108;2023-05-29T11:05:23;99955.53;;;34.45;33.98
78909;BME280;68298;37.368;127.108;2023-05-29T11:07:59;99952.28;;;34.55;33.58
78909;BME280;68298;37.368;127.108;2023-05-29T11:13:32;99955.66;;;34.62;33.27
78909;BME280;68298;37.368;127.108;2023-05-29T11:16:14;99955.03;;;34.79;33.39
78909;BME280;68298;37.368;127.108;2023-05-29T11:18:49;99965.78;;;34.18;34.31
78909;BME280;68298;37.368;127.108;2023-05-29T11:24:23;99963.59;;;34.45;33.68
78909;BME280;68298;37.368;127.108;2023-05-29T11:26:56;99959.09;;;34.69;33.24
78909;BME280;68298;37.368;127.108;2023-05-29T11:29:28;99963.31;;;34.77;33.29
78909;BME280;68298;37.368;127.108;2023-05-29T11:32:06;99957.34;;;34.75;33.14
78909;BME280;68298;37.368;127.108;2023-05-29T11:34:41;99971.72;;;34.69;33.57
78909;BME280;68298;37.368;127.108;2023-05-29T11:37:15;99978.00;;;34.63;33.73
78909;BME280;68298;37.368;127.108;2023-05-29T11:39:46;99987.16;;;34.43;33.70
78909;BME280;68298;37.368;127.108;2023-05-29T11:42:16;99984.22;;;34.63;33.16
78909;BME280;68298;37.368;127.108;2023-05-29T11:44:47;99999.53;;;34.44;33.91
78909;BME280;68298;37.368;127.108;2023-05-29T11:47:18;99996.81;;;34.33;33.89
78909;BME280;68298;37.368;127.108;2023-05-29T11:49:49;100013.31;;;34.55;33.31
78909;BME280;68298;37.368;127.108;2023-05-29T11:52:20;100013.25;;;34.25;34.06
78909;BME280;68298;37.368;127.108;2023-05-29T11:54:51;100021.41;;;34.55;33.29
78909;BME280;68298;37.368;127.108;2023-05-29T11:57:23;100022.66;;;34.34;33.83
78909;BME280;68298;37.368;127.108;2023-05-29T11:59:54;100024.25;;;34.05;34.40
78909;BME280;68298;37.368;127.108;2023-05-29T12:02:31;100021.84;;;33.78;35.03
78909;BME280;68298;37.368;127.108;2023-05-29T12:05:06;100022.78;;;33.47;35.45
78909;BME280;68298;37.368;127.108;2023-05-29T12:07:37;100030.72;;;33.79;35.11
78909;BME280;68298;37.368;127.108;2023-05-29T12:10:16;100022.97;;;33.89;34.70
78909;BME280;68298;37.368;127.108;2023-05-29T12:12:55;100025.56;;;33.59;35.22
78909;BME280;68298;37.368;127.108;2023-05-29T12:15:25;100027.75;;;33.43;35.97
78909;BME280;68298;37.368;127.108;2023-05-29T12:17:56;100025.28;;;33.85;34.91
78909;BME280;68298;37.368;127.108;2023-05-29T12:20:27;100030.66;;;33.85;35.43
78909;BME280;68298;37.368;127.108;2023-05-29T12:23:01;100027.06;;;33.55;35.67
78909;BME280;68298;37.368;127.108;2023-05-29T12:25:34;100025.63;;;33.52;35.29
78909;BME280;68298;37.368;127.108;2023-05-29T12:28:08;100014.31;;;33.68;35.44
78909;BME280;68298;37.368;127.108;2023-05-29T12:30:39;100021.69;;;33.55;35.81
78909;BME280;68298;37.368;127.108;2023-05-29T12:33:25;100026.75;;;33.44;35.92
78909;BME280;68298;37.368;127.108;2023-05-29T12:36:08;100035.97;;;33.49;35.63
78909;BME280;68298;37.368;127.108;2023-05-29T12:38:52;100028.25;;;33.59;35.29
78909;BME280;68298;37.368;127.108;2023-05-29T12:41:33;100040.56;;;33.41;35.77
78909;BME280;68298;37.368;127.108;2023-05-29T12:44:05;100041.22;;;33.37;35.53
78909;BME280;68298;37.368;127.108;2023-05-29T12:46:41;100039.28;;;33.51;35.83
78909;BME280;68298;37.368;127.108;2023-05-29T12:49:16;100053.59;;;33.38;35.95
78909;BME280;68298;37.368;127.108;2023-05-29T12:51:48;100046.72;;;33.49;36.03
78909;BME280;68298;37.368;127.108;2023-05-29T12:54:20;100055.84;;;33.41;36.15
78909;BME280;68298;37.368;127.108;2023-05-29T12:56:50;100047.19;;;33.39;36.10
78909;BME280;68298;37.368;127.108;2023-05-29T12:59:21;100055.22;;;33.39;35.94
78909;BME280;68298;37.368;127.108;2023-05-29T13:01:52;100052.63;;;33.32;35.99
78909;BME280;68298;37.368;127.108;2023-05-29T13:04:22;100051.25;;;33.48;35.60
78909;BME280;68298;37.368;127.108;2023-05-29T13:06:53;100056.19;;;33.51;35.07
78909;BME280;68298;37.368;127.108;2023-05-29T13:09:24;100061.22;;;33.41;35.88
78909;BME280;68298;37.368;127.108;2023-05-29T13:11:54;100054.91;;;33.29;35.51
78909;BME280;68298;37.368;127.108;2023-05-29T13:14:25;100063.78;;;33.29;36.40
78909;BME280;68298;37.368;127.108;2023-05-29T13:16:56;100063.16;;;33.59;35.29
78909;BME280;68298;37.368;127.108;2023-05-29T13:19:26;100066.47;;;33.29;35.97
78909;BME280;68298;37.368;127.108;2023-05-29T13:21:56;100067.00;;;33.13;36.40
78909;BME280;68298;37.368;127.108;2023-05-29T13:24:27;100062.22;;;33.22;36.33
78909;BME280;68298;37.368;127.108;2023-05-29T13:26:57;100059.72;;;33.20;36.04